sensor_id;sensor_type;location;lat;lon;timestamp;P1;durP1;ratioP1;P2;durP2;ratioP2
39356;SDS011;25077;50.302;18.996;2022-10-14T00:02:32;37.40;;;21.93;;
39356;SDS011;25077;50.302;18.996;2022-10-14T00:05:38;40.97;;;21.43;;
39356;SDS011;25077;50.302;18.996;2022-10-14T00:08:41;37.07;;;21.83;;
39356;SDS011;25077;50.302;18.996;2022-10-14T00:11:47;42.63;;;22.53;;
39356;SDS011;25077;50.302;18.996;2022-10-14T00:14:49;36.50;;;21.27;;
39356;SDS011;25077;50.302;18.996;2022-10-14T00:17:53;40.63;;;22.13;;
39356;SDS011;25077;50.302;18.996;2022-10-14T00:20:55;37.93;;;22.43;;
39356;SDS011;25077;50.302;18.996;2022-10-14T00:23:58;32.90;;;21.77;;
39356;SDS011;25077;50.302;18.996;2022-10-14T00:27:00;36.90;;;21.27;;
39356;SDS011;25077;50.302;18.996;2022-10-14T00:30:02;38.13;;;21.67;;
39356;SDS011;25077;50.302;18.996;2022-10-14T00:33:06;38.63;;;21.43;;
39356;SDS011;25077;50.302;18.996;2022-10-14T00:36:09;41.63;;;20.80;;
39356;SDS011;25077;50.302;18.996;2022-10-14T00:39:13;42.93;;;22.13;;
39356;SDS011;25077;50.302;18.996;2022-10-14T00:42:15;41.60;;;21.90;;
39356;SDS011;25077;50.302;18.996;2022-10-14T00:45:19;45.03;;;22.57;;
39356;SDS011;25077;50.302;18.996;2022-10-14T00:48:24;38.70;;;21.50;;
39356;SDS011;25077;50.302;18.996;2022-10-14T00:51:29;42.90;;;22.17;;
39356;SDS011;25077;50.302;18.996;2022-10-14T00:54:33;37.03;;;21.23;;
39356;SDS011;25077;50.302;18.996;2022-10-14T00:57:38;36.50;;;21.60;;
39356;SDS011;25077;50.302;18.996;2022-10-14T01:00:41;42.53;;;23.50;;
39356;SDS011;25077;50.302;18.996;2022-10-14T01:03:45;41.73;;;22.53;;
39356;SDS011;25077;50.302;18.996;2022-10-14T01:06:50;44.40;;;21.70;;
39356;SDS011;25077;50.302;18.996;2022-10-14T01:10:02;38.90;;;22.57;;
39356;SDS011;25077;50.302;18.996;2022-10-14T01:13:13;40.10;;;21.87;;
39356;SDS011;25077;50.302;18.996;2022-10-14T01:16:24;39.40;;;21.50;;
39356;SDS011;25077;50.302;18.996;2022-10-14T01:19:57;45.07;;;21.87;;
39356;SDS011;25077;50.302;18.996;2022-10-14T01:23:23;42.73;;;22.30;;
39356;SDS011;25077;50.302;18.996;2022-10-14T01:26:43;37.03;;;22.97;;
39356;SDS011;25077;50.302;18.996;2022-10-14T01:33:19;49.17;;;23.80;;
39356;SDS011;25077;50.302;18.996;2022-10-14T01:36:27;47.23;;;23.40;;
39356;SDS011;25077;50.302;18.996;2022-10-14T01:39:34;40.03;;;22.17;;
39356;SDS011;25077;50.302;18.996;2022-10-14T01:42:41;42.07;;;23.13;;
39356;SDS011;25077;50.302;18.996;2022-10-14T01:45:48;44.17;;;22.47;;
39356;SDS011;25077;50.302;18.996;2022-10-14T01:48:51;41.17;;;23.67;;
39356;SDS011;25077;50.302;18.996;2022-10-14T01:51:58;42.03;;;23.43;;
39356;SDS011;25077;50.302;18.996;2022-10-14T01:55:07;45.03;;;23.03;;
39356;SDS011;25077;50.302;18.996;2022-10-14T01:58:15;41.53;;;23.50;;
39356;SDS011;25077;50.302;18.996;2022-10-14T02:01:20;42.97;;;24.47;;
39356;SDS011;25077;50.302;18.996;2022-10-14T02:04:22;45.50;;;23.70;;
39356;SDS011;25077;50.302;18.996;2022-10-14T02:07:25;43.10;;;22.73;;
39356;SDS011;25077;50.302;18.996;2022-10-14T02:10:34;35.63;;;22.67;;
39356;SDS011;25077;50.302;18.996;2022-10-14T02:13:54;35.67;;;20.67;;
39356;SDS011;25077;50.302;18.996;2022-10-14T02:17:08;41.00;;;20.17;;
39356;SDS011;25077;50.302;18.996;2022-10-14T02:20:15;37.23;;;20.17;;
39356;SDS011;25077;50.302;18.996;2022-10-14T02:23:24;35.13;;;19.77;;
39356;SDS011;25077;50.302;18.996;2022-10-14T02:26:30;33.33;;;19.33;;
39356;SDS011;25077;50.302;18.996;2022-10-14T02:29:34;31.97;;;18.87;;
39356;SDS011;25077;50.302;18.996;2022-10-14T02:32:39;41.23;;;20.03;;
39356;SDS011;25077;50.302;18.996;2022-10-14T02:35:46;33.63;;;19.20;;
39356;SDS011;25077;50.302;18.996;2022-10-14T02:38:49;38.13;;;20.10;;
39356;SDS011;25077;50.302;18.996;2022-10-14T02:41:53;33.63;;;19.17;;
39356;SDS011;25077;50.302;18.996;2022-10-14T02:44:56;32.87;;;18.60;;
39356;SDS011;25077;50.302;18.996;2022-10-14T02:48:01;31.60;;;19.47;;
39356;SDS011;25077;50.302;18.996;2022-10-14T02:51:03;35.77;;;19.23;;
39356;SDS011;25077;50.302;18.996;2022-10-14T02:54:05;32.80;;;19.17;;
39356;SDS011;25077;50.302;18.996;2022-10-14T02:57:08;36.87;;;20.00;;
39356;SDS011;25077;50.302;18.996;2022-10-14T03:00:10;33.80;;;19.07;;
39356;SDS011;25077;50.302;18.996;2022-10-14T03:03:17;31.23;;;18.53;;
39356;SDS011;25077;50.302;18.996;2022-10-14T03:06:20;27.90;;;17.67;;
39356;SDS011;25077;50.302;18.996;2022-10-14T03:09:23;31.17;;;18.70;;
39356;SDS011;25077;50.302;18.996;2022-10-14T03:12:25;37.37;;;18.13;;
39356;SDS011;25077;50.302;18.996;2022-10-14T03:15:30;36.80;;;21.67;;
39356;SDS011;25077;50.302;18.996;2022-10-14T03:18:34;36.57;;;20.60;;
39356;SDS011;25077;50.302;18.996;2022-10-14T03:21:44;32.40;;;18.97;;
39356;SDS011;25077;50.302;18.996;2022-10-14T03:24:52;32.77;;;17.90;;
39356;SDS011;25077;50.302;18.996;2022-10-14T03:28:07;35.87;;;19.27;;
39356;SDS011;25077;50.302;18.996;2022-10-14T03:31:23;33.13;;;18.53;;
39356;SDS011;25077;50.302;18.996;2022-10-14T03:34:45;34.37;;;18.70;;
39356;SDS011;25077;50.302;18.996;2022-10-14T03:37:52;34.67;;;19.47;;
39356;SDS011;25077;50.302;18.996;2022-10-14T03:40:59;28.77;;;17.43;;
39356;SDS011;25077;50.302;18.996;2022-10-14T03:44:01;31.00;;;18.60;;
39356;SDS011;25077;50.302;18.996;2022-10-14T03:47:06;33.17;;;20.20;;
39356;SDS011;25077;50.302;18.996;2022-10-14T03:50:09;31.57;;;19.37;;
39356;SDS011;25077;50.302;18.996;2022-10-14T03:53:18;29.87;;;18.93;;
39356;SDS011;25077;50.302;18.996;2022-10-14T03:56:20;36.03;;;19.93;;
39356;SDS011;25077;50.302;18.996;2022-10-14T03:59:25;35.70;;;19.67;;
39356;SDS011;25077;50.302;18.996;2022-10-14T04:02:29;30.77;;;19.47;;
39356;SDS011;25077;50.302;18.996;2022-10-14T04:05:33;36.43;;;20.23;;
39356;SDS011;25077;50.302;18.996;2022-10-14T04:08:43;36.03;;;18.53;;
39356;SDS011;25077;50.302;18.996;2022-10-14T04:12:00;28.43;;;17.53;;
39356;SDS011;25077;50.302;18.996;2022-10-14T04:15:29;33.10;;;19.20;;
39356;SDS011;25077;50.302;18.996;2022-10-14T04:18:43;34.10;;;18.70;;
39356;SDS011;25077;50.302;18.996;2022-10-14T04:21:50;30.10;;;19.40;;
39356;SDS011;25077;50.302;18.996;2022-10-14T04:24:55;28.90;;;18.07;;
39356;SDS011;25077;50.302;18.996;2022-10-14T04:27:58;26.60;;;17.57;;
39356;SDS011;25077;50.302;18.996;2022-10-14T04:31:11;28.33;;;17.63;;
39356;SDS011;25077;50.302;18.996;2022-10-14T04:34:30;33.97;;;18.40;;
39356;SDS011;25077;50.302;18.996;2022-10-14T04:37:34;31.10;;;18.03;;
39356;SDS011;25077;50.302;18.996;2022-10-14T04:40:43;30.00;;;17.20;;
39356;SDS011;25077;50.302;18.996;2022-10-14T04:43:45;27.83;;;17.10;;
39356;SDS011;25077;50.302;18.996;2022-10-14T04:47:10;31.17;;;18.07;;
39356;SDS011;25077;50.302;18.996;2022-10-14T04:50:13;35.27;;;17.80;;
39356;SDS011;25077;50.302;18.996;2022-10-14T04:53:36;26.47;;;16.20;;
39356;SDS011;25077;50.302;18.996;2022-10-14T04:56:57;28.90;;;17.33;;
39356;SDS011;25077;50.302;18.996;2022-10-14T04:59:59;32.87;;;19.53;;
39356;SDS011;25077;50.302;18.996;2022-10-14T05:03:17;34.07;;;19.40;;
39356;SDS011;25077;50.302;18.996;2022-10-14T05:06:20;42.63;;;22.93;;
39356;SDS011;25077;50.302;18.996;2022-10-14T05:09:26;49.83;;;26.23;;
39356;SDS011;25077;50.302;18.996;2022-10-14T05:12:29;60.97;;;28.43;;
39356;SDS011;25077;50.302;18.996;2022-10-14T05:15:35;74.73;;;33.87;;
39356;SDS011;25077;50.302;18.996;2022-10-14T05:18:42;65.30;;;32.60;;
39356;SDS011;25077;50.302;18.996;2022-10-14T05:21:46;74.30;;;35.43;;
39356;SDS011;25077;50.302;18.996;2022-10-14T05:24:55;68.93;;;32.83;;
39356;SDS011;25077;50.302;18.996;2022-10-14T05:27:58;76.00;;;32.67;;
39356;SDS011;25077;50.302;18.996;2022-10-14T05:31:00;66.07;;;30.67;;
39356;SDS011;25077;50.302;18.996;2022-10-14T05:34:05;70.63;;;31.07;;
39356;SDS011;25077;50.302;18.996;2022-10-14T05:37:07;56.83;;;28.07;;
39356;SDS011;25077;50.302;18.996;2022-10-14T05:40:21;53.60;;;27.50;;
39356;SDS011;25077;50.302;18.996;2022-10-14T05:43:27;51.70;;;25.50;;
39356;SDS011;25077;50.302;18.996;2022-10-14T05:46:29;50.40;;;26.20;;
39356;SDS011;25077;50.302;18.996;2022-10-14T05:49:32;49.20;;;23.37;;
39356;SDS011;25077;50.302;18.996;2022-10-14T05:52:37;38.63;;;19.93;;
39356;SDS011;25077;50.302;18.996;2022-10-14T05:55:49;38.80;;;21.07;;
39356;SDS011;25077;50.302;18.996;2022-10-14T05:58:54;33.40;;;17.70;;
39356;SDS011;25077;50.302;18.996;2022-10-14T06:01:57;34.33;;;17.60;;
39356;SDS011;25077;50.302;18.996;2022-10-14T06:04:59;28.67;;;17.07;;
39356;SDS011;25077;50.302;18.996;2022-10-14T06:08:02;26.73;;;17.17;;
39356;SDS011;25077;50.302;18.996;2022-10-14T06:11:09;24.13;;;16.87;;
39356;SDS011;25077;50.302;18.996;2022-10-14T06:14:12;29.40;;;16.80;;
39356;SDS011;25077;50.302;18.996;2022-10-14T06:17:15;29.87;;;17.83;;
39356;SDS011;25077;50.302;18.996;2022-10-14T06:20:17;30.47;;;17.43;;
39356;SDS011;25077;50.302;18.996;2022-10-14T06:23:19;35.23;;;20.37;;
39356;SDS011;25077;50.302;18.996;2022-10-14T06:26:22;34.03;;;19.70;;
39356;SDS011;25077;50.302;18.996;2022-10-14T06:29:29;32.80;;;19.27;;
39356;SDS011;25077;50.302;18.996;2022-10-14T06:32:37;27.33;;;19.17;;
39356;SDS011;25077;50.302;18.996;2022-10-14T06:35:39;27.13;;;19.33;;
39356;SDS011;25077;50.302;18.996;2022-10-14T06:38:41;30.60;;;17.43;;
39356;SDS011;25077;50.302;18.996;2022-10-14T06:41:44;30.90;;;18.33;;
39356;SDS011;25077;50.302;18.996;2022-10-14T06:44:52;29.97;;;18.37;;
39356;SDS011;25077;50.302;18.996;2022-10-14T06:47:55;28.17;;;17.27;;
39356;SDS011;25077;50.302;18.996;2022-10-14T06:50:57;30.67;;;17.77;;
39356;SDS011;25077;50.302;18.996;2022-10-14T06:54:00;32.50;;;17.80;;
39356;SDS011;25077;50.302;18.996;2022-10-14T06:57:03;29.57;;;16.87;;
39356;SDS011;25077;50.302;18.996;2022-10-14T07:00:06;28.93;;;17.37;;
39356;SDS011;25077;50.302;18.996;2022-10-14T07:03:09;29.27;;;18.00;;
39356;SDS011;25077;50.302;18.996;2022-10-14T07:06:11;31.27;;;18.27;;
39356;SDS011;25077;50.302;18.996;2022-10-14T07:09:13;28.10;;;16.90;;
39356;SDS011;25077;50.302;18.996;2022-10-14T07:12:17;33.50;;;17.87;;
39356;SDS011;25077;50.302;18.996;2022-10-14T07:15:19;29.97;;;16.77;;
39356;SDS011;25077;50.302;18.996;2022-10-14T07:18:21;31.93;;;17.23;;
39356;SDS011;25077;50.302;18.996;2022-10-14T07:21:23;34.87;;;17.30;;
39356;SDS011;25077;50.302;18.996;2022-10-14T07:24:25;31.33;;;16.07;;
39356;SDS011;25077;50.302;18.996;2022-10-14T07:27:28;30.07;;;17.90;;
39356;SDS011;25077;50.302;18.996;2022-10-14T07:30:32;38.20;;;18.03;;
39356;SDS011;25077;50.302;18.996;2022-10-14T07:33:34;35.73;;;18.20;;
39356;SDS011;25077;50.302;18.996;2022-10-14T07:36:37;29.37;;;17.70;;
39356;SDS011;25077;50.302;18.996;2022-10-14T07:39:39;30.90;;;17.87;;
39356;SDS011;25077;50.302;18.996;2022-10-14T07:42:43;32.87;;;17.77;;
39356;SDS011;25077;50.302;18.996;2022-10-14T07:45:45;36.33;;;17.40;;
39356;SDS011;25077;50.302;18.996;2022-10-14T07:48:47;28.07;;;17.43;;
39356;SDS011;25077;50.302;18.996;2022-10-14T07:51:49;33.77;;;17.63;;
39356;SDS011;25077;50.302;18.996;2022-10-14T07:54:52;35.47;;;17.50;;
39356;SDS011;25077;50.302;18.996;2022-10-14T07:57:55;25.20;;;17.30;;
39356;SDS011;25077;50.302;18.996;2022-10-14T08:00:57;31.13;;;18.50;;
39356;SDS011;25077;50.302;18.996;2022-10-14T08:03:59;31.27;;;18.23;;
39356;SDS011;25077;50.302;18.996;2022-10-14T08:07:01;29.07;;;18.10;;
39356;SDS011;25077;50.302;18.996;2022-10-14T08:10:04;27.60;;;17.30;;
39356;SDS011;25077;50.302;18.996;2022-10-14T08:13:08;31.23;;;17.93;;
39356;SDS011;25077;50.302;18.996;2022-10-14T08:16:12;26.60;;;17.47;;
39356;SDS011;25077;50.302;18.996;2022-10-14T08:19:15;34.20;;;17.30;;
39356;SDS011;25077;50.302;18.996;2022-10-14T08:22:17;27.17;;;18.00;;
39356;SDS011;25077;50.302;18.996;2022-10-14T08:25:19;24.87;;;16.13;;
39356;SDS011;25077;50.302;18.996;2022-10-14T08:28:23;28.53;;;17.07;;
39356;SDS011;25077;50.302;18.996;2022-10-14T08:31:25;30.53;;;17.73;;
39356;SDS011;25077;50.302;18.996;2022-10-14T08:34:28;29.57;;;17.10;;
39356;SDS011;25077;50.302;18.996;2022-10-14T08:37:30;31.03;;;16.77;;
39356;SDS011;25077;50.302;18.996;2022-10-14T08:40:35;26.60;;;17.07;;
39356;SDS011;25077;50.302;18.996;2022-10-14T08:43:51;35.07;;;16.97;;
39356;SDS011;25077;50.302;18.996;2022-10-14T08:47:02;29.87;;;16.40;;
39356;SDS011;25077;50.302;18.996;2022-10-14T08:50:16;22.33;;;15.47;;
39356;SDS011;25077;50.302;18.996;2022-10-14T08:53:24;24.97;;;15.77;;
39356;SDS011;25077;50.302;18.996;2022-10-14T08:56:30;29.57;;;17.40;;
39356;SDS011;25077;50.302;18.996;2022-10-14T08:59:36;25.50;;;16.67;;
39356;SDS011;25077;50.302;18.996;2022-10-14T09:02:43;24.37;;;16.97;;
39356;SDS011;25077;50.302;18.996;2022-10-14T09:05:50;29.20;;;16.27;;
39356;SDS011;25077;50.302;18.996;2022-10-14T09:08:59;27.83;;;16.63;;
39356;SDS011;25077;50.302;18.996;2022-10-14T09:12:10;25.47;;;15.67;;
39356;SDS011;25077;50.302;18.996;2022-10-14T09:15:18;25.10;;;15.33;;
39356;SDS011;25077;50.302;18.996;2022-10-14T09:18:26;24.67;;;14.27;;
39356;SDS011;25077;50.302;18.996;2022-10-14T09:21:34;23.37;;;15.00;;
39356;SDS011;25077;50.302;18.996;2022-10-14T09:24:38;25.53;;;14.77;;
39356;SDS011;25077;50.302;18.996;2022-10-14T09:27:41;19.83;;;14.23;;
39356;SDS011;25077;50.302;18.996;2022-10-14T09:30:44;25.80;;;14.50;;
39356;SDS011;25077;50.302;18.996;2022-10-14T09:33:46;23.67;;;13.60;;
39356;SDS011;25077;50.302;18.996;2022-10-14T09:36:49;24.03;;;13.87;;
39356;SDS011;25077;50.302;18.996;2022-10-14T09:39:55;25.83;;;13.77;;
39356;SDS011;25077;50.302;18.996;2022-10-14T09:43:01;22.60;;;14.33;;
39356;SDS011;25077;50.302;18.996;2022-10-14T09:46:11;22.77;;;13.57;;
39356;SDS011;25077;50.302;18.996;2022-10-14T09:49:14;23.47;;;13.37;;
39356;SDS011;25077;50.302;18.996;2022-10-14T09:52:19;26.60;;;14.63;;
39356;SDS011;25077;50.302;18.996;2022-10-14T09:55:23;23.67;;;14.33;;
39356;SDS011;25077;50.302;18.996;2022-10-14T09:58:30;20.67;;;13.00;;
39356;SDS011;25077;50.302;18.996;2022-10-14T10:01:38;26.37;;;14.23;;
39356;SDS011;25077;50.302;18.996;2022-10-14T10:04:42;23.63;;;14.07;;
39356;SDS011;25077;50.302;18.996;2022-10-14T10:07:48;23.73;;;14.30;;
39356;SDS011;25077;50.302;18.996;2022-10-14T10:11:02;25.47;;;14.50;;
39356;SDS011;25077;50.302;18.996;2022-10-14T10:14:15;23.57;;;14.10;;
39356;SDS011;25077;50.302;18.996;2022-10-14T10:17:26;22.37;;;13.10;;
39356;SDS011;25077;50.302;18.996;2022-10-14T10:20:32;28.30;;;14.40;;
39356;SDS011;25077;50.302;18.996;2022-10-14T10:23:35;22.87;;;14.30;;
39356;SDS011;25077;50.302;18.996;2022-10-14T10:26:37;25.57;;;13.33;;
39356;SDS011;25077;50.302;18.996;2022-10-14T10:29:39;23.43;;;13.77;;
39356;SDS011;25077;50.302;18.996;2022-10-14T10:32:43;23.63;;;13.93;;
39356;SDS011;25077;50.302;18.996;2022-10-14T10:36:12;21.10;;;13.87;;
39356;SDS011;25077;50.302;18.996;2022-10-14T10:39:21;29.03;;;14.40;;
39356;SDS011;25077;50.302;18.996;2022-10-14T10:42:36;25.40;;;13.10;;
39356;SDS011;25077;50.302;18.996;2022-10-14T10:45:53;20.40;;;12.77;;
39356;SDS011;25077;50.302;18.996;2022-10-14T10:49:11;22.03;;;12.80;;
39356;SDS011;25077;50.302;18.996;2022-10-14T10:52:21;26.93;;;13.10;;
39356;SDS011;25077;50.302;18.996;2022-10-14T10:55:35;22.95;;;12.00;;
39356;SDS011;25077;50.302;18.996;2022-10-14T10:58:51;20.42;;;12.70;;
39356;SDS011;25077;50.302;18.996;2022-10-14T11:02:13;22.25;;;11.80;;
39356;SDS011;25077;50.302;18.996;2022-10-14T11:09:02;23.98;;;11.55;;
39356;SDS011;25077;50.302;18.996;2022-10-14T11:12:23;19.50;;;11.75;;
39356;SDS011;25077;50.302;18.996;2022-10-14T11:15:37;19.85;;;11.15;;
39356;SDS011;25077;50.302;18.996;2022-10-14T11:18:47;21.45;;;11.93;;
39356;SDS011;25077;50.302;18.996;2022-10-14T11:21:53;18.67;;;12.10;;
39356;SDS011;25077;50.302;18.996;2022-10-14T11:25:08;28.33;;;12.23;;
39356;SDS011;25077;50.302;18.996;2022-10-14T11:28:23;22.52;;;12.55;;
39356;SDS011;25077;50.302;18.996;2022-10-14T11:31:35;16.27;;;10.88;;
39356;SDS011;25077;50.302;18.996;2022-10-14T11:34:41;18.08;;;10.75;;
39356;SDS011;25077;50.302;18.996;2022-10-14T11:37:53;19.55;;;11.02;;
39356;SDS011;25077;50.302;18.996;2022-10-14T11:41:06;20.00;;;11.02;;
39356;SDS011;25077;50.302;18.996;2022-10-14T11:44:18;20.05;;;11.20;;
39356;SDS011;25077;50.302;18.996;2022-10-14T11:47:29;20.50;;;11.83;;
39356;SDS011;25077;50.302;18.996;2022-10-14T11:50:35;22.50;;;11.52;;
39356;SDS011;25077;50.302;18.996;2022-10-14T11:53:47;16.95;;;11.50;;
39356;SDS011;25077;50.302;18.996;2022-10-14T11:56:55;16.77;;;10.98;;
39356;SDS011;25077;50.302;18.996;2022-10-14T12:00:00;18.42;;;11.30;;
39356;SDS011;25077;50.302;18.996;2022-10-14T12:03:14;19.20;;;11.40;;
39356;SDS011;25077;50.302;18.996;2022-10-14T12:06:23;19.02;;;9.75;;
39356;SDS011;25077;50.302;18.996;2022-10-14T12:09:34;16.67;;;9.95;;
39356;SDS011;25077;50.302;18.996;2022-10-14T12:12:39;16.20;;;9.82;;
39356;SDS011;25077;50.302;18.996;2022-10-14T12:15:43;24.77;;;10.80;;
39356;SDS011;25077;50.302;18.996;2022-10-14T12:18:51;16.25;;;10.40;;
39356;SDS011;25077;50.302;18.996;2022-10-14T12:22:01;15.82;;;10.18;;
39356;SDS011;25077;50.302;18.996;2022-10-14T12:25:15;13.68;;;9.43;;
39356;SDS011;25077;50.302;18.996;2022-10-14T12:28:21;16.10;;;10.30;;
39356;SDS011;25077;50.302;18.996;2022-10-14T12:31:32;15.35;;;10.73;;
39356;SDS011;25077;50.302;18.996;2022-10-14T12:34:36;17.23;;;10.50;;
39356;SDS011;25077;50.302;18.996;2022-10-14T12:37:40;19.35;;;10.65;;
39356;SDS011;25077;50.302;18.996;2022-10-14T12:40:51;15.80;;;10.80;;
39356;SDS011;25077;50.302;18.996;2022-10-14T12:43:57;20.13;;;11.50;;
39356;SDS011;25077;50.302;18.996;2022-10-14T12:47:00;13.88;;;9.95;;
39356;SDS011;25077;50.302;18.996;2022-10-14T12:50:06;19.08;;;10.63;;
39356;SDS011;25077;50.302;18.996;2022-10-14T12:53:29;14.55;;;10.18;;
39356;SDS011;25077;50.302;18.996;2022-10-14T12:56:38;16.85;;;10.77;;
39356;SDS011;25077;50.302;18.996;2022-10-14T12:59:47;20.35;;;10.18;;
39356;SDS011;25077;50.302;18.996;2022-10-14T13:02:52;17.10;;;10.30;;
39356;SDS011;25077;50.302;18.996;2022-10-14T13:09:35;17.98;;;9.52;;
39356;SDS011;25077;50.302;18.996;2022-10-14T13:12:39;17.70;;;10.50;;
39356;SDS011;25077;50.302;18.996;2022-10-14T13:15:47;15.25;;;9.95;;
39356;SDS011;25077;50.302;18.996;2022-10-14T13:18:51;15.15;;;10.05;;
39356;SDS011;25077;50.302;18.996;2022-10-14T13:21:54;19.55;;;9.85;;
39356;SDS011;25077;50.302;18.996;2022-10-14T13:24:59;14.43;;;9.60;;
39356;SDS011;25077;50.302;18.996;2022-10-14T13:28:11;18.50;;;10.52;;
39356;SDS011;25077;50.302;18.996;2022-10-14T13:31:25;17.00;;;9.88;;
39356;SDS011;25077;50.302;18.996;2022-10-14T13:34:40;15.23;;;9.73;;
39356;SDS011;25077;50.302;18.996;2022-10-14T13:37:52;14.98;;;9.20;;
39356;SDS011;25077;50.302;18.996;2022-10-14T13:40:59;15.32;;;10.25;;
39356;SDS011;25077;50.302;18.996;2022-10-14T13:44:04;22.20;;;10.20;;
39356;SDS011;25077;50.302;18.996;2022-10-14T13:47:08;15.73;;;10.10;;
39356;SDS011;25077;50.302;18.996;2022-10-14T13:50:14;16.27;;;8.95;;
39356;SDS011;25077;50.302;18.996;2022-10-14T13:53:20;16.65;;;10.02;;
39356;SDS011;25077;50.302;18.996;2022-10-14T13:56:24;19.35;;;10.93;;
39356;SDS011;25077;50.302;18.996;2022-10-14T13:59:34;15.25;;;10.77;;
39356;SDS011;25077;50.302;18.996;2022-10-14T14:02:38;22.02;;;11.20;;
39356;SDS011;25077;50.302;18.996;2022-10-14T14:05:43;15.65;;;10.43;;
39356;SDS011;25077;50.302;18.996;2022-10-14T14:08:46;18.00;;;11.55;;
39356;SDS011;25077;50.302;18.996;2022-10-14T14:11:50;19.40;;;11.18;;
39356;SDS011;25077;50.302;18.996;2022-10-14T14:14:58;16.20;;;10.70;;
39356;SDS011;25077;50.302;18.996;2022-10-14T14:18:01;22.33;;;12.20;;
39356;SDS011;25077;50.302;18.996;2022-10-14T14:21:03;22.87;;;12.00;;
39356;SDS011;25077;50.302;18.996;2022-10-14T14:24:16;21.40;;;11.43;;
39356;SDS011;25077;50.302;18.996;2022-10-14T14:27:26;19.43;;;11.70;;
39356;SDS011;25077;50.302;18.996;2022-10-14T14:30:30;20.20;;;11.70;;
39356;SDS011;25077;50.302;18.996;2022-10-14T14:33:34;18.77;;;10.83;;
39356;SDS011;25077;50.302;18.996;2022-10-14T14:40:13;20.23;;;11.95;;
39356;SDS011;25077;50.302;18.996;2022-10-14T14:43:18;27.17;;;11.93;;
39356;SDS011;25077;50.302;18.996;2022-10-14T14:46:23;18.20;;;10.90;;
39356;SDS011;25077;50.302;18.996;2022-10-14T14:49:34;20.47;;;12.23;;
39356;SDS011;25077;50.302;18.996;2022-10-14T14:52:38;23.57;;;11.83;;
39356;SDS011;25077;50.302;18.996;2022-10-14T14:55:46;19.40;;;12.07;;
39356;SDS011;25077;50.302;18.996;2022-10-14T15:04:01;16.83;;;11.17;;
39356;SDS011;25077;50.302;18.996;2022-10-14T15:07:09;17.97;;;12.30;;
39356;SDS011;25077;50.302;18.996;2022-10-14T15:10:20;17.47;;;11.43;;
39356;SDS011;25077;50.302;18.996;2022-10-14T15:13:26;23.80;;;12.73;;
39356;SDS011;25077;50.302;18.996;2022-10-14T15:16:30;20.20;;;12.23;;
39356;SDS011;25077;50.302;18.996;2022-10-14T15:19:37;21.13;;;13.00;;
39356;SDS011;25077;50.302;18.996;2022-10-14T15:22:39;22.20;;;12.53;;
39356;SDS011;25077;50.302;18.996;2022-10-14T15:25:43;17.70;;;12.07;;
39356;SDS011;25077;50.302;18.996;2022-10-14T15:29:11;21.63;;;13.20;;
39356;SDS011;25077;50.302;18.996;2022-10-14T15:32:18;22.43;;;13.60;;
39356;SDS011;25077;50.302;18.996;2022-10-14T15:35:22;24.73;;;12.63;;
39356;SDS011;25077;50.302;18.996;2022-10-14T15:38:25;19.73;;;12.40;;
39356;SDS011;25077;50.302;18.996;2022-10-14T15:41:27;23.30;;;13.33;;
39356;SDS011;25077;50.302;18.996;2022-10-14T15:44:29;24.23;;;13.20;;
39356;SDS011;25077;50.302;18.996;2022-10-14T15:47:31;22.07;;;13.17;;
39356;SDS011;25077;50.302;18.996;2022-10-14T15:50:35;23.13;;;13.33;;
39356;SDS011;25077;50.302;18.996;2022-10-14T15:53:38;24.77;;;13.93;;
39356;SDS011;25077;50.302;18.996;2022-10-14T15:56:40;20.47;;;14.17;;
39356;SDS011;25077;50.302;18.996;2022-10-14T15:59:42;24.37;;;14.23;;
39356;SDS011;25077;50.302;18.996;2022-10-14T16:02:45;24.13;;;15.30;;
39356;SDS011;25077;50.302;18.996;2022-10-14T16:05:49;28.60;;;15.07;;
39356;SDS011;25077;50.302;18.996;2022-10-14T16:08:51;23.37;;;14.70;;
39356;SDS011;25077;50.302;18.996;2022-10-14T16:11:53;24.63;;;14.80;;
39356;SDS011;25077;50.302;18.996;2022-10-14T16:14:57;28.07;;;16.67;;
39356;SDS011;25077;50.302;18.996;2022-10-14T16:18:01;26.60;;;14.23;;
39356;SDS011;25077;50.302;18.996;2022-10-14T16:21:04;27.57;;;17.37;;
39356;SDS011;25077;50.302;18.996;2022-10-14T16:24:09;24.97;;;15.20;;
39356;SDS011;25077;50.302;18.996;2022-10-14T16:27:15;29.57;;;15.27;;
39356;SDS011;25077;50.302;18.996;2022-10-14T16:30:18;21.77;;;13.67;;
39356;SDS011;25077;50.302;18.996;2022-10-14T16:33:20;20.47;;;12.67;;
39356;SDS011;25077;50.302;18.996;2022-10-14T16:36:24;22.97;;;14.13;;
39356;SDS011;25077;50.302;18.996;2022-10-14T16:39:27;23.67;;;13.80;;
39356;SDS011;25077;50.302;18.996;2022-10-14T16:42:29;23.40;;;13.73;;
39356;SDS011;25077;50.302;18.996;2022-10-14T16:45:31;23.77;;;13.53;;
39356;SDS011;25077;50.302;18.996;2022-10-14T16:48:34;20.13;;;13.87;;
39356;SDS011;25077;50.302;18.996;2022-10-14T16:51:37;25.23;;;14.40;;
39356;SDS011;25077;50.302;18.996;2022-10-14T16:54:39;24.03;;;13.37;;
39356;SDS011;25077;50.302;18.996;2022-10-14T16:57:41;21.57;;;13.60;;
39356;SDS011;25077;50.302;18.996;2022-10-14T17:00:43;26.33;;;14.17;;
39356;SDS011;25077;50.302;18.996;2022-10-14T17:03:45;24.37;;;14.00;;
39356;SDS011;25077;50.302;18.996;2022-10-14T17:06:49;25.70;;;14.20;;
39356;SDS011;25077;50.302;18.996;2022-10-14T17:09:52;32.60;;;14.30;;
39356;SDS011;25077;50.302;18.996;2022-10-14T17:12:54;24.70;;;14.70;;
39356;SDS011;25077;50.302;18.996;2022-10-14T17:15:57;21.73;;;13.73;;
39356;SDS011;25077;50.302;18.996;2022-10-14T17:19:00;30.87;;;15.00;;
39356;SDS011;25077;50.302;18.996;2022-10-14T17:22:04;21.53;;;12.93;;
39356;SDS011;25077;50.302;18.996;2022-10-14T17:25:06;27.80;;;14.63;;
39356;SDS011;25077;50.302;18.996;2022-10-14T17:28:08;25.27;;;13.47;;
39356;SDS011;25077;50.302;18.996;2022-10-14T17:31:13;26.00;;;14.90;;
39356;SDS011;25077;50.302;18.996;2022-10-14T17:34:17;24.53;;;14.10;;
39356;SDS011;25077;50.302;18.996;2022-10-14T17:37:20;27.87;;;15.37;;
39356;SDS011;25077;50.302;18.996;2022-10-14T17:40:22;27.37;;;14.20;;
39356;SDS011;25077;50.302;18.996;2022-10-14T17:43:24;25.67;;;14.10;;
39356;SDS011;25077;50.302;18.996;2022-10-14T17:46:27;27.03;;;14.93;;
39356;SDS011;25077;50.302;18.996;2022-10-14T17:49:31;27.03;;;14.43;;
39356;SDS011;25077;50.302;18.996;2022-10-14T17:52:34;33.33;;;15.53;;
39356;SDS011;25077;50.302;18.996;2022-10-14T17:55:37;30.23;;;15.87;;
39356;SDS011;25077;50.302;18.996;2022-10-14T17:58:39;26.13;;;15.13;;
39356;SDS011;25077;50.302;18.996;2022-10-14T18:01:41;27.37;;;14.87;;
39356;SDS011;25077;50.302;18.996;2022-10-14T18:04:43;26.63;;;14.33;;
39356;SDS011;25077;50.302;18.996;2022-10-14T18:07:46;28.93;;;14.27;;
39356;SDS011;25077;50.302;18.996;2022-10-14T18:10:48;35.80;;;17.30;;
39356;SDS011;25077;50.302;18.996;2022-10-14T18:13:51;28.77;;;16.77;;